sensor_id;sensor_type;location;lat;lon;timestamp;P1;durP1;ratioP1;P2;durP2;ratioP2
14858;SDS011;7521;51.700;6.874;2022-11-20T00:01:30;19.23;;;11.63;;
14858;SDS011;7521;51.700;6.874;2022-11-20T00:04:35;18.90;;;11.27;;
14858;SDS011;7521;51.700;6.874;2022-11-20T00:07:40;19.20;;;11.20;;
14858;SDS011;7521;51.700;6.874;2022-11-20T00:10:46;17.27;;;10.93;;
14858;SDS011;7521;51.700;6.874;2022-11-20T00:13:52;18.43;;;11.57;;
14858;SDS011;7521;51.700;6.874;2022-11-20T00:16:57;19.30;;;10.77;;
14858;SDS011;7521;51.700;6.874;2022-11-20T00:20:02;17.88;;;10.95;;
14858;SDS011;7521;51.700;6.874;2022-11-20T00:23:08;21.27;;;12.07;;
14858;SDS011;7521;51.700;6.874;2022-11-20T00:26:14;19.00;;;11.93;;
14858;SDS011;7521;51.700;6.874;2022-11-20T00:29:19;15.87;;;10.63;;
14858;SDS011;7521;51.700;6.874;2022-11-20T00:32:24;19.83;;;12.50;;
14858;SDS011;7521;51.700;6.874;2022-11-20T00:35:29;19.95;;;12.32;;
14858;SDS011;7521;51.700;6.874;2022-11-20T00:38:35;22.08;;;13.77;;
14858;SDS011;7521;51.700;6.874;2022-11-20T00:41:40;22.97;;;12.90;;
14858;SDS011;7521;51.700;6.874;2022-11-20T00:44:45;21.95;;;13.73;;
14858;SDS011;7521;51.700;6.874;2022-11-20T00:47:50;20.55;;;12.90;;
14858;SDS011;7521;51.700;6.874;2022-11-20T00:50:55;23.15;;;12.90;;
14858;SDS011;7521;51.700;6.874;2022-11-20T00:54:01;20.63;;;12.70;;
14858;SDS011;7521;51.700;6.874;2022-11-20T00:57:07;23.47;;;12.70;;
14858;SDS011;7521;51.700;6.874;2022-11-20T01:00:12;21.67;;;12.55;;
14858;SDS011;7521;51.700;6.874;2022-11-20T01:03:17;20.13;;;12.23;;
14858;SDS011;7521;51.700;6.874;2022-11-20T01:06:24;23.20;;;12.83;;
14858;SDS011;7521;51.700;6.874;2022-11-20T01:09:29;22.83;;;12.83;;
14858;SDS011;7521;51.700;6.874;2022-11-20T01:12:34;19.73;;;11.37;;
14858;SDS011;7521;51.700;6.874;2022-11-20T01:15:40;20.13;;;12.13;;
14858;SDS011;7521;51.700;6.874;2022-11-20T01:18:46;20.30;;;12.63;;
14858;SDS011;7521;51.700;6.874;2022-11-20T01:21:53;21.33;;;12.43;;
14858;SDS011;7521;51.700;6.874;2022-11-20T01:24:58;20.27;;;12.13;;
14858;SDS011;7521;51.700;6.874;2022-11-20T01:28:03;18.42;;;12.00;;
14858;SDS011;7521;51.700;6.874;2022-11-20T01:31:15;22.10;;;12.87;;
14858;SDS011;7521;51.700;6.874;2022-11-20T01:34:21;18.83;;;11.23;;
14858;SDS011;7521;51.700;6.874;2022-11-20T01:37:27;18.67;;;12.10;;
14858;SDS011;7521;51.700;6.874;2022-11-20T01:40:32;22.60;;;12.70;;
14858;SDS011;7521;51.700;6.874;2022-11-20T01:43:37;19.02;;;11.93;;
14858;SDS011;7521;51.700;6.874;2022-11-20T01:46:49;19.77;;;12.38;;
14858;SDS011;7521;51.700;6.874;2022-11-20T01:50:12;24.13;;;12.57;;
14858;SDS011;7521;51.700;6.874;2022-11-20T01:53:18;19.57;;;11.40;;
14858;SDS011;7521;51.700;6.874;2022-11-20T01:56:24;18.53;;;11.60;;
14858;SDS011;7521;51.700;6.874;2022-11-20T01:59:30;21.53;;;13.17;;
14858;SDS011;7521;51.700;6.874;2022-11-20T02:02:36;21.20;;;12.33;;
14858;SDS011;7521;51.700;6.874;2022-11-20T02:05:43;20.83;;;11.90;;
14858;SDS011;7521;51.700;6.874;2022-11-20T02:08:50;22.40;;;12.37;;
14858;SDS011;7521;51.700;6.874;2022-11-20T02:11:55;25.33;;;13.97;;
14858;SDS011;7521;51.700;6.874;2022-11-20T02:15:01;23.17;;;12.50;;
14858;SDS011;7521;51.700;6.874;2022-11-20T02:18:06;20.47;;;12.20;;
14858;SDS011;7521;51.700;6.874;2022-11-20T02:21:24;24.17;;;12.97;;
14858;SDS011;7521;51.700;6.874;2022-11-20T02:24:30;21.10;;;11.67;;
14858;SDS011;7521;51.700;6.874;2022-11-20T02:27:35;20.27;;;12.70;;
14858;SDS011;7521;51.700;6.874;2022-11-20T02:30:41;18.53;;;11.53;;
14858;SDS011;7521;51.700;6.874;2022-11-20T02:33:46;22.75;;;13.40;;
14858;SDS011;7521;51.700;6.874;2022-11-20T02:36:51;23.90;;;12.95;;
14858;SDS011;7521;51.700;6.874;2022-11-20T02:39:57;24.63;;;12.87;;
14858;SDS011;7521;51.700;6.874;2022-11-20T02:43:02;22.03;;;12.60;;
14858;SDS011;7521;51.700;6.874;2022-11-20T02:46:07;20.87;;;13.17;;
14858;SDS011;7521;51.700;6.874;2022-11-20T02:49:13;22.43;;;13.03;;
14858;SDS011;7521;51.700;6.874;2022-11-20T02:52:18;25.37;;;14.70;;
14858;SDS011;7521;51.700;6.874;2022-11-20T02:55:23;22.23;;;13.05;;
14858;SDS011;7521;51.700;6.874;2022-11-20T02:58:28;22.17;;;12.50;;
14858;SDS011;7521;51.700;6.874;2022-11-20T03:01:33;20.70;;;12.15;;
14858;SDS011;7521;51.700;6.874;2022-11-20T03:04:38;22.27;;;13.18;;
14858;SDS011;7521;51.700;6.874;2022-11-20T03:07:44;20.85;;;12.45;;
14858;SDS011;7521;51.700;6.874;2022-11-20T03:10:49;22.30;;;13.60;;
14858;SDS011;7521;51.700;6.874;2022-11-20T03:13:54;22.08;;;11.93;;
14858;SDS011;7521;51.700;6.874;2022-11-20T03:16:59;23.90;;;13.63;;
14858;SDS011;7521;51.700;6.874;2022-11-20T03:20:04;22.08;;;13.05;;
14858;SDS011;7521;51.700;6.874;2022-11-20T03:23:10;22.77;;;12.93;;
14858;SDS011;7521;51.700;6.874;2022-11-20T03:26:17;21.33;;;12.05;;
14858;SDS011;7521;51.700;6.874;2022-11-20T03:29:22;20.77;;;12.57;;
14858;SDS011;7521;51.700;6.874;2022-11-20T03:32:27;29.95;;;13.45;;
14858;SDS011;7521;51.700;6.874;2022-11-20T03:35:32;22.23;;;12.45;;
14858;SDS011;7521;51.700;6.874;2022-11-20T03:38:38;20.52;;;12.82;;
14858;SDS011;7521;51.700;6.874;2022-11-20T03:41:43;21.50;;;12.53;;
14858;SDS011;7521;51.700;6.874;2022-11-20T03:44:48;19.67;;;12.30;;
14858;SDS011;7521;51.700;6.874;2022-11-20T03:47:53;21.70;;;13.48;;
14858;SDS011;7521;51.700;6.874;2022-11-20T03:54:36;21.17;;;11.83;;
14858;SDS011;7521;51.700;6.874;2022-11-20T03:57:41;21.85;;;12.93;;
14858;SDS011;7521;51.700;6.874;2022-11-20T04:00:46;21.67;;;13.27;;
14858;SDS011;7521;51.700;6.874;2022-11-20T04:03:52;21.45;;;13.23;;
14858;SDS011;7521;51.700;6.874;2022-11-20T04:06:57;21.73;;;12.67;;
14858;SDS011;7521;51.700;6.874;2022-11-20T04:10:03;23.73;;;13.63;;
14858;SDS011;7521;51.700;6.874;2022-11-20T04:13:08;20.43;;;12.27;;
14858;SDS011;7521;51.700;6.874;2022-11-20T04:16:14;22.00;;;13.45;;
14858;SDS011;7521;51.700;6.874;2022-11-20T04:19:20;22.73;;;12.43;;
14858;SDS011;7521;51.700;6.874;2022-11-20T04:22:25;23.02;;;13.25;;
14858;SDS011;7521;51.700;6.874;2022-11-20T04:25:30;19.88;;;11.77;;
14858;SDS011;7521;51.700;6.874;2022-11-20T04:28:35;22.15;;;12.70;;
14858;SDS011;7521;51.700;6.874;2022-11-20T04:31:41;20.47;;;12.50;;
14858;SDS011;7521;51.700;6.874;2022-11-20T04:34:46;23.13;;;14.43;;
14858;SDS011;7521;51.700;6.874;2022-11-20T04:37:51;21.83;;;12.83;;
14858;SDS011;7521;51.700;6.874;2022-11-20T04:41:00;25.00;;;14.10;;
14858;SDS011;7521;51.700;6.874;2022-11-20T04:44:05;28.30;;;14.50;;
14858;SDS011;7521;51.700;6.874;2022-11-20T04:47:11;21.53;;;12.63;;
14858;SDS011;7521;51.700;6.874;2022-11-20T04:50:16;25.40;;;13.52;;
14858;SDS011;7521;51.700;6.874;2022-11-20T04:53:21;23.20;;;13.73;;
14858;SDS011;7521;51.700;6.874;2022-11-20T04:56:26;25.70;;;13.73;;
14858;SDS011;7521;51.700;6.874;2022-11-20T04:59:32;25.90;;;13.98;;
14858;SDS011;7521;51.700;6.874;2022-11-20T05:02:37;22.00;;;13.48;;
14858;SDS011;7521;51.700;6.874;2022-11-20T05:05:42;24.23;;;14.23;;
14858;SDS011;7521;51.700;6.874;2022-11-20T05:08:47;25.23;;;13.38;;
14858;SDS011;7521;51.700;6.874;2022-11-20T05:11:52;21.67;;;12.73;;
14858;SDS011;7521;51.700;6.874;2022-11-20T05:14:58;22.98;;;13.20;;
14858;SDS011;7521;51.700;6.874;2022-11-20T05:18:03;20.73;;;13.32;;
14858;SDS011;7521;51.700;6.874;2022-11-20T05:21:08;23.67;;;14.30;;
14858;SDS011;7521;51.700;6.874;2022-11-20T05:24:14;25.10;;;13.67;;
14858;SDS011;7521;51.700;6.874;2022-11-20T05:27:20;27.37;;;15.20;;
14858;SDS011;7521;51.700;6.874;2022-11-20T05:30:25;23.37;;;14.27;;
14858;SDS011;7521;51.700;6.874;2022-11-20T05:33:30;23.10;;;13.77;;
14858;SDS011;7521;51.700;6.874;2022-11-20T05:36:35;25.17;;;13.77;;
14858;SDS011;7521;51.700;6.874;2022-11-20T05:39:40;22.05;;;12.80;;
14858;SDS011;7521;51.700;6.874;2022-11-20T05:42:46;23.85;;;13.95;;
14858;SDS011;7521;51.700;6.874;2022-11-20T05:45:51;22.65;;;14.20;;
14858;SDS011;7521;51.700;6.874;2022-11-20T05:48:57;24.77;;;14.60;;
14858;SDS011;7521;51.700;6.874;2022-11-20T05:52:02;26.90;;;14.67;;
14858;SDS011;7521;51.700;6.874;2022-11-20T05:55:08;23.93;;;13.17;;
14858;SDS011;7521;51.700;6.874;2022-11-20T05:58:13;22.70;;;14.50;;
14858;SDS011;7521;51.700;6.874;2022-11-20T06:01:22;23.98;;;15.07;;
14858;SDS011;7521;51.700;6.874;2022-11-20T06:04:28;25.70;;;13.97;;
14858;SDS011;7521;51.700;6.874;2022-11-20T06:07:33;21.77;;;12.37;;
14858;SDS011;7521;51.700;6.874;2022-11-20T06:10:38;23.02;;;13.13;;
14858;SDS011;7521;51.700;6.874;2022-11-20T06:13:44;24.42;;;14.65;;
14858;SDS011;7521;51.700;6.874;2022-11-20T06:16:49;26.37;;;14.27;;
14858;SDS011;7521;51.700;6.874;2022-11-20T06:19:54;23.20;;;13.07;;
14858;SDS011;7521;51.700;6.874;2022-11-20T06:22:59;23.77;;;14.80;;
14858;SDS011;7521;51.700;6.874;2022-11-20T06:26:09;23.05;;;14.10;;
14858;SDS011;7521;51.700;6.874;2022-11-20T06:29:14;22.53;;;13.37;;
14858;SDS011;7521;51.700;6.874;2022-11-20T06:32:19;23.45;;;13.68;;
14858;SDS011;7521;51.700;6.874;2022-11-20T06:35:24;23.55;;;14.10;;
14858;SDS011;7521;51.700;6.874;2022-11-20T06:38:30;22.48;;;13.80;;
14858;SDS011;7521;51.700;6.874;2022-11-20T06:41:35;19.98;;;12.63;;
14858;SDS011;7521;51.700;6.874;2022-11-20T06:44:40;25.88;;;13.25;;
14858;SDS011;7521;51.700;6.874;2022-11-20T06:47:45;26.15;;;14.10;;
14858;SDS011;7521;51.700;6.874;2022-11-20T06:50:50;24.52;;;13.48;;
14858;SDS011;7521;51.700;6.874;2022-11-20T06:53:55;23.37;;;14.07;;
14858;SDS011;7521;51.700;6.874;2022-11-20T06:57:01;25.53;;;15.00;;
14858;SDS011;7521;51.700;6.874;2022-11-20T07:00:06;22.90;;;14.10;;
14858;SDS011;7521;51.700;6.874;2022-11-20T07:03:12;24.37;;;14.60;;
14858;SDS011;7521;51.700;6.874;2022-11-20T07:06:17;29.70;;;15.07;;
14858;SDS011;7521;51.700;6.874;2022-11-20T07:09:22;26.40;;;14.82;;
14858;SDS011;7521;51.700;6.874;2022-11-20T07:12:27;31.10;;;15.00;;
14858;SDS011;7521;51.700;6.874;2022-11-20T07:15:32;29.85;;;14.65;;
14858;SDS011;7521;51.700;6.874;2022-11-20T07:18:37;26.92;;;14.35;;
14858;SDS011;7521;51.700;6.874;2022-11-20T07:21:43;22.77;;;14.00;;
14858;SDS011;7521;51.700;6.874;2022-11-20T07:24:48;33.33;;;16.15;;
14858;SDS011;7521;51.700;6.874;2022-11-20T07:27:56;23.47;;;13.97;;
14858;SDS011;7521;51.700;6.874;2022-11-20T07:31:02;27.67;;;14.50;;
14858;SDS011;7521;51.700;6.874;2022-11-20T07:34:07;24.23;;;14.13;;
14858;SDS011;7521;51.700;6.874;2022-11-20T07:37:13;28.67;;;15.33;;
14858;SDS011;7521;51.700;6.874;2022-11-20T07:40:18;28.83;;;14.90;;
14858;SDS011;7521;51.700;6.874;2022-11-20T07:43:23;26.00;;;14.53;;
14858;SDS011;7521;51.700;6.874;2022-11-20T07:46:30;27.63;;;15.43;;
14858;SDS011;7521;51.700;6.874;2022-11-20T07:49:35;29.23;;;15.77;;
14858;SDS011;7521;51.700;6.874;2022-11-20T07:52:40;27.63;;;15.50;;
14858;SDS011;7521;51.700;6.874;2022-11-20T07:55:46;26.67;;;15.70;;
14858;SDS011;7521;51.700;6.874;2022-11-20T07:58:51;24.37;;;15.37;;
14858;SDS011;7521;51.700;6.874;2022-11-20T08:01:56;28.25;;;15.93;;
14858;SDS011;7521;51.700;6.874;2022-11-20T08:05:01;28.15;;;14.85;;
14858;SDS011;7521;51.700;6.874;2022-11-20T08:08:06;26.42;;;15.27;;
14858;SDS011;7521;51.700;6.874;2022-11-20T08:11:12;28.73;;;15.33;;
14858;SDS011;7521;51.700;6.874;2022-11-20T08:14:36;27.03;;;15.23;;
14858;SDS011;7521;51.700;6.874;2022-11-20T08:17:41;28.50;;;16.25;;
14858;SDS011;7521;51.700;6.874;2022-11-20T08:20:46;29.77;;;17.00;;
14858;SDS011;7521;51.700;6.874;2022-11-20T08:23:52;31.33;;;17.13;;
14858;SDS011;7521;51.700;6.874;2022-11-20T08:27:00;30.00;;;16.77;;
14858;SDS011;7521;51.700;6.874;2022-11-20T08:30:05;31.53;;;17.20;;
14858;SDS011;7521;51.700;6.874;2022-11-20T08:33:10;26.80;;;16.83;;
14858;SDS011;7521;51.700;6.874;2022-11-20T08:36:15;26.98;;;15.93;;
14858;SDS011;7521;51.700;6.874;2022-11-20T08:39:21;24.17;;;16.00;;
14858;SDS011;7521;51.700;6.874;2022-11-20T08:42:26;28.85;;;16.95;;
14858;SDS011;7521;51.700;6.874;2022-11-20T08:45:31;28.67;;;16.87;;
14858;SDS011;7521;51.700;6.874;2022-11-20T08:48:37;32.63;;;18.33;;
14858;SDS011;7521;51.700;6.874;2022-11-20T08:51:42;37.03;;;24.17;;
14858;SDS011;7521;51.700;6.874;2022-11-20T08:54:47;33.88;;;20.33;;
14858;SDS011;7521;51.700;6.874;2022-11-20T08:57:52;36.40;;;22.27;;
14858;SDS011;7521;51.700;6.874;2022-11-20T09:00:57;33.55;;;21.40;;
14858;SDS011;7521;51.700;6.874;2022-11-20T09:04:03;33.67;;;21.47;;
14858;SDS011;7521;51.700;6.874;2022-11-20T09:07:09;37.60;;;23.87;;
14858;SDS011;7521;51.700;6.874;2022-11-20T09:10:14;36.88;;;23.33;;
14858;SDS011;7521;51.700;6.874;2022-11-20T09:13:20;38.70;;;25.45;;
14858;SDS011;7521;51.700;6.874;2022-11-20T09:16:25;40.37;;;25.53;;
14858;SDS011;7521;51.700;6.874;2022-11-20T09:19:30;37.72;;;24.00;;
14858;SDS011;7521;51.700;6.874;2022-11-20T09:22:39;37.97;;;24.10;;
14858;SDS011;7521;51.700;6.874;2022-11-20T09:25:44;34.63;;;22.83;;
14858;SDS011;7521;51.700;6.874;2022-11-20T09:28:49;35.08;;;23.23;;
14858;SDS011;7521;51.700;6.874;2022-11-20T09:31:54;38.95;;;22.30;;
14858;SDS011;7521;51.700;6.874;2022-11-20T09:34:59;36.13;;;21.92;;
14858;SDS011;7521;51.700;6.874;2022-11-20T09:38:07;37.40;;;22.90;;
14858;SDS011;7521;51.700;6.874;2022-11-20T09:48:04;36.03;;;23.23;;
14858;SDS011;7521;51.700;6.874;2022-11-20T09:54:17;37.93;;;24.10;;
14858;SDS011;7521;51.700;6.874;2022-11-20T09:57:25;38.70;;;24.07;;
14858;SDS011;7521;51.700;6.874;2022-11-20T10:00:31;41.23;;;24.37;;
14858;SDS011;7521;51.700;6.874;2022-11-20T10:03:41;36.78;;;23.70;;
14858;SDS011;7521;51.700;6.874;2022-11-20T10:09:55;35.60;;;23.42;;
14858;SDS011;7521;51.700;6.874;2022-11-20T10:13:05;34.43;;;23.20;;
14858;SDS011;7521;51.700;6.874;2022-11-20T10:16:30;44.47;;;26.40;;
14858;SDS011;7521;51.700;6.874;2022-11-20T10:29:19;38.90;;;24.47;;
14858;SDS011;7521;51.700;6.874;2022-11-20T10:32:29;39.00;;;24.70;;
14858;SDS011;7521;51.700;6.874;2022-11-20T10:35:40;41.87;;;24.83;;
14858;SDS011;7521;51.700;6.874;2022-11-20T10:38:50;43.30;;;26.03;;
14858;SDS011;7521;51.700;6.874;2022-11-20T10:42:02;42.07;;;26.63;;
14858;SDS011;7521;51.700;6.874;2022-11-20T10:45:21;38.07;;;24.20;;
14858;SDS011;7521;51.700;6.874;2022-11-20T10:48:32;43.57;;;25.57;;
14858;SDS011;7521;51.700;6.874;2022-11-20T10:51:48;37.00;;;25.90;;
14858;SDS011;7521;51.700;6.874;2022-11-20T10:55:05;39.27;;;25.17;;
14858;SDS011;7521;51.700;6.874;2022-11-20T10:58:18;45.43;;;28.50;;
14858;SDS011;7521;51.700;6.874;2022-11-20T11:01:25;43.53;;;28.17;;
14858;SDS011;7521;51.700;6.874;2022-11-20T11:04:43;41.00;;;26.50;;
14858;SDS011;7521;51.700;6.874;2022-11-20T11:07:50;40.60;;;27.23;;
14858;SDS011;7521;51.700;6.874;2022-11-20T11:10:57;41.83;;;26.80;;
14858;SDS011;7521;51.700;6.874;2022-11-20T11:14:06;43.50;;;25.97;;
14858;SDS011;7521;51.700;6.874;2022-11-20T11:20:31;41.77;;;27.27;;
14858;SDS011;7521;51.700;6.874;2022-11-20T11:23:38;47.27;;;26.97;;
14858;SDS011;7521;51.700;6.874;2022-11-20T11:26:50;41.40;;;26.20;;
14858;SDS011;7521;51.700;6.874;2022-11-20T11:30:11;42.37;;;26.57;;
14858;SDS011;7521;51.700;6.874;2022-11-20T11:33:21;46.13;;;27.43;;
14858;SDS011;7521;51.700;6.874;2022-11-20T11:36:26;37.47;;;24.60;;
14858;SDS011;7521;51.700;6.874;2022-11-20T11:39:32;41.55;;;26.58;;
14858;SDS011;7521;51.700;6.874;2022-11-20T11:42:45;39.80;;;25.23;;
14858;SDS011;7521;51.700;6.874;2022-11-20T11:45:53;38.80;;;23.63;;
14858;SDS011;7521;51.700;6.874;2022-11-20T11:52:17;35.77;;;22.33;;
14858;SDS011;7521;51.700;6.874;2022-11-20T11:58:47;39.38;;;23.98;;
14858;SDS011;7521;51.700;6.874;2022-11-20T12:01:54;36.40;;;22.70;;
14858;SDS011;7521;51.700;6.874;2022-11-20T12:05:02;37.20;;;23.70;;
14858;SDS011;7521;51.700;6.874;2022-11-20T12:08:24;34.27;;;22.30;;
14858;SDS011;7521;51.700;6.874;2022-11-20T12:17:41;32.42;;;21.02;;
14858;SDS011;7521;51.700;6.874;2022-11-20T12:24:06;32.20;;;20.23;;
14858;SDS011;7521;51.700;6.874;2022-11-20T12:27:23;30.83;;;18.90;;
14858;SDS011;7521;51.700;6.874;2022-11-20T12:30:33;32.70;;;20.43;;
14858;SDS011;7521;51.700;6.874;2022-11-20T12:33:45;29.37;;;18.37;;
14858;SDS011;7521;51.700;6.874;2022-11-20T12:36:55;27.00;;;17.43;;
14858;SDS011;7521;51.700;6.874;2022-11-20T12:40:06;30.27;;;19.20;;
14858;SDS011;7521;51.700;6.874;2022-11-20T12:46:48;35.63;;;20.80;;
14858;SDS011;7521;51.700;6.874;2022-11-20T12:49:59;34.47;;;21.50;;
14858;SDS011;7521;51.700;6.874;2022-11-20T12:59:49;36.00;;;23.10;;
14858;SDS011;7521;51.700;6.874;2022-11-20T13:03:13;36.63;;;23.90;;
14858;SDS011;7521;51.700;6.874;2022-11-20T13:06:21;38.43;;;22.67;;
14858;SDS011;7521;51.700;6.874;2022-11-20T13:09:28;38.60;;;23.27;;
14858;SDS011;7521;51.700;6.874;2022-11-20T13:12:36;34.73;;;22.60;;
14858;SDS011;7521;51.700;6.874;2022-11-20T13:15:58;41.37;;;24.27;;
14858;SDS011;7521;51.700;6.874;2022-11-20T13:19:08;36.77;;;23.77;;
14858;SDS011;7521;51.700;6.874;2022-11-20T13:22:23;37.27;;;24.70;;
14858;SDS011;7521;51.700;6.874;2022-11-20T13:25:32;35.80;;;24.47;;
14858;SDS011;7521;51.700;6.874;2022-11-20T13:28:38;35.53;;;22.87;;
14858;SDS011;7521;51.700;6.874;2022-11-20T13:31:45;33.97;;;22.40;;
14858;SDS011;7521;51.700;6.874;2022-11-20T13:34:55;33.50;;;22.77;;
14858;SDS011;7521;51.700;6.874;2022-11-20T13:41:11;35.03;;;22.93;;
14858;SDS011;7521;51.700;6.874;2022-11-20T13:44:38;35.63;;;22.90;;
14858;SDS011;7521;51.700;6.874;2022-11-20T13:47:52;37.47;;;23.40;;
14858;SDS011;7521;51.700;6.874;2022-11-20T13:51:06;34.83;;;24.40;;
14858;SDS011;7521;51.700;6.874;2022-11-20T13:57:42;40.17;;;24.50;;
14858;SDS011;7521;51.700;6.874;2022-11-20T14:00:57;40.80;;;26.70;;
14858;SDS011;7521;51.700;6.874;2022-11-20T14:04:09;36.27;;;24.40;;
14858;SDS011;7521;51.700;6.874;2022-11-20T14:07:19;40.43;;;26.70;;
14858;SDS011;7521;51.700;6.874;2022-11-20T14:10:26;43.00;;;27.63;;
14858;SDS011;7521;51.700;6.874;2022-11-20T14:13:32;39.30;;;25.47;;
14858;SDS011;7521;51.700;6.874;2022-11-20T14:16:37;40.65;;;26.02;;
14858;SDS011;7521;51.700;6.874;2022-11-20T14:19:43;40.27;;;24.27;;
14858;SDS011;7521;51.700;6.874;2022-11-20T14:22:49;46.13;;;28.33;;
14858;SDS011;7521;51.700;6.874;2022-11-20T14:25:58;39.50;;;25.53;;
14858;SDS011;7521;51.700;6.874;2022-11-20T14:29:03;38.13;;;23.80;;
14858;SDS011;7521;51.700;6.874;2022-11-20T14:32:09;39.40;;;24.93;;
14858;SDS011;7521;51.700;6.874;2022-11-20T14:35:19;39.23;;;24.33;;
14858;SDS011;7521;51.700;6.874;2022-11-20T14:38:26;38.57;;;25.30;;
14858;SDS011;7521;51.700;6.874;2022-11-20T14:41:32;40.60;;;24.63;;
14858;SDS011;7521;51.700;6.874;2022-11-20T14:44:37;42.90;;;26.00;;
14858;SDS011;7521;51.700;6.874;2022-11-20T14:47:42;44.50;;;24.88;;
14858;SDS011;7521;51.700;6.874;2022-11-20T14:50:48;45.20;;;25.20;;
14858;SDS011;7521;51.700;6.874;2022-11-20T14:53:53;45.03;;;25.75;;
14858;SDS011;7521;51.700;6.874;2022-11-20T14:56:59;41.80;;;26.80;;
14858;SDS011;7521;51.700;6.874;2022-11-20T15:03:16;42.93;;;25.43;;
14858;SDS011;7521;51.700;6.874;2022-11-20T15:06:25;36.13;;;23.30;;
14858;SDS011;7521;51.700;6.874;2022-11-20T15:09:30;39.33;;;23.97;;
14858;SDS011;7521;51.700;6.874;2022-11-20T15:12:37;42.72;;;24.48;;
14858;SDS011;7521;51.700;6.874;2022-11-20T15:15:45;38.63;;;25.00;;
14858;SDS011;7521;51.700;6.874;2022-11-20T15:18:51;38.50;;;24.20;;
14858;SDS011;7521;51.700;6.874;2022-11-20T15:21:56;39.63;;;25.50;;
14858;SDS011;7521;51.700;6.874;2022-11-20T15:25:01;40.08;;;24.67;;
14858;SDS011;7521;51.700;6.874;2022-11-20T15:28:40;39.85;;;25.15;;
14858;SDS011;7521;51.700;6.874;2022-11-20T15:31:38;42.90;;;25.87;;
14858;SDS011;7521;51.700;6.874;2022-11-20T15:34:46;47.10;;;27.03;;
14858;SDS011;7521;51.700;6.874;2022-11-20T15:37:51;40.45;;;24.08;;
14858;SDS011;7521;51.700;6.874;2022-11-20T15:40:56;48.65;;;26.40;;
14858;SDS011;7521;51.700;6.874;2022-11-20T15:44:02;52.87;;;31.10;;
14858;SDS011;7521;51.700;6.874;2022-11-20T15:47:08;41.03;;;25.53;;
14858;SDS011;7521;51.700;6.874;2022-11-20T15:50:14;42.73;;;26.03;;
14858;SDS011;7521;51.700;6.874;2022-11-20T15:53:21;39.07;;;25.87;;
14858;SDS011;7521;51.700;6.874;2022-11-20T15:56:27;40.63;;;25.07;;
14858;SDS011;7521;51.700;6.874;2022-11-20T15:59:32;40.83;;;25.67;;
14858;SDS011;7521;51.700;6.874;2022-11-20T16:02:37;45.77;;;26.70;;
14858;SDS011;7521;51.700;6.874;2022-11-20T16:05:43;44.53;;;26.90;;
14858;SDS011;7521;51.700;6.874;2022-11-20T16:08:48;42.40;;;25.47;;
14858;SDS011;7521;51.700;6.874;2022-11-20T16:11:53;38.42;;;24.13;;
14858;SDS011;7521;51.700;6.874;2022-11-20T16:14:58;39.37;;;24.57;;
14858;SDS011;7521;51.700;6.874;2022-11-20T16:18:22;40.50;;;25.67;;
14858;SDS011;7521;51.700;6.874;2022-11-20T16:21:27;37.20;;;23.45;;
14858;SDS011;7521;51.700;6.874;2022-11-20T16:24:36;40.50;;;23.97;;
14858;SDS011;7521;51.700;6.874;2022-11-20T16:27:41;41.50;;;25.67;;
14858;SDS011;7521;51.700;6.874;2022-11-20T16:30:46;41.67;;;25.38;;
14858;SDS011;7521;51.700;6.874;2022-11-20T16:33:52;39.67;;;24.70;;
14858;SDS011;7521;51.700;6.874;2022-11-20T16:36:58;40.73;;;24.77;;
14858;SDS011;7521;51.700;6.874;2022-11-20T16:40:03;36.97;;;24.10;;
14858;SDS011;7521;51.700;6.874;2022-11-20T16:43:12;38.57;;;25.30;;
14858;SDS011;7521;51.700;6.874;2022-11-20T16:46:19;42.73;;;26.43;;
14858;SDS011;7521;51.700;6.874;2022-11-20T16:49:24;41.43;;;26.73;;
14858;SDS011;7521;51.700;6.874;2022-11-20T16:52:30;47.40;;;26.77;;
14858;SDS011;7521;51.700;6.874;2022-11-20T16:55:35;40.53;;;25.80;;
14858;SDS011;7521;51.700;6.874;2022-11-20T16:58:40;44.67;;;28.30;;
14858;SDS011;7521;51.700;6.874;2022-11-20T17:01:45;47.43;;;28.27;;
14858;SDS011;7521;51.700;6.874;2022-11-20T17:04:51;43.37;;;26.27;;
14858;SDS011;7521;51.700;6.874;2022-11-20T17:07:56;46.50;;;27.50;;
14858;SDS011;7521;51.700;6.874;2022-11-20T17:11:07;46.70;;;27.57;;
14858;SDS011;7521;51.700;6.874;2022-11-20T17:14:13;45.37;;;27.37;;
14858;SDS011;7521;51.700;6.874;2022-11-20T17:17:18;49.53;;;30.65;;
14858;SDS011;7521;51.700;6.874;2022-11-20T17:20:23;50.30;;;29.88;;
14858;SDS011;7521;51.700;6.874;2022-11-20T17:23:32;49.40;;;28.27;;
14858;SDS011;7521;51.700;6.874;2022-11-20T17:26:39;46.47;;;27.87;;
14858;SDS011;7521;51.700;6.874;2022-11-20T17:29:44;55.20;;;32.30;;
14858;SDS011;7521;51.700;6.874;2022-11-20T17:32:49;53.92;;;30.92;;
14858;SDS011;7521;51.700;6.874;2022-11-20T17:35:55;52.55;;;29.13;;
14858;SDS011;7521;51.700;6.874;2022-11-20T17:39:00;49.77;;;29.80;;
14858;SDS011;7521;51.700;6.874;2022-11-20T17:42:05;52.45;;;31.20;;
14858;SDS011;7521;51.700;6.874;2022-11-20T17:45:29;57.70;;;31.57;;
14858;SDS011;7521;51.700;6.874;2022-11-20T17:48:34;55.78;;;30.63;;
14858;SDS011;7521;51.700;6.874;2022-11-20T17:51:39;55.57;;;30.03;;
14858;SDS011;7521;51.700;6.874;2022-11-20T17:54:46;56.67;;;31.90;;
14858;SDS011;7521;51.700;6.874;2022-11-20T17:57:51;61.07;;;33.17;;
14858;SDS011;7521;51.700;6.874;2022-11-20T18:01:02;57.95;;;31.60;;
14858;SDS011;7521;51.700;6.874;2022-11-20T18:04:08;56.57;;;32.20;;
14858;SDS011;7521;51.700;6.874;2022-11-20T18:07:13;56.77;;;31.63;;
14858;SDS011;7521;51.700;6.874;2022-11-20T18:10:18;52.35;;;31.35;;
14858;SDS011;7521;51.700;6.874;2022-11-20T18:13:23;56.22;;;31.92;;
14858;SDS011;7521;51.700;6.874;2022-11-20T18:16:50;56.37;;;32.73;;
14858;SDS011;7521;51.700;6.874;2022-11-20T18:19:55;58.57;;;33.43;;
14858;SDS011;7521;51.700;6.874;2022-11-20T18:23:00;57.83;;;30.60;;
14858;SDS011;7521;51.700;6.874;2022-11-20T18:26:06;63.05;;;33.75;;
14858;SDS011;7521;51.700;6.874;2022-11-20T18:29:11;61.53;;;34.87;;
14858;SDS011;7521;51.700;6.874;2022-11-20T18:32:18;64.03;;;33.93;;
14858;SDS011;7521;51.700;6.874;2022-11-20T18:35:25;65.43;;;34.90;;
14858;SDS011;7521;51.700;6.874;2022-11-20T18:38:30;61.27;;;33.50;;
14858;SDS011;7521;51.700;6.874;2022-11-20T18:41:35;57.13;;;32.90;;
14858;SDS011;7521;51.700;6.874;2022-11-20T18:44:59;56.77;;;32.47;;
14858;SDS011;7521;51.700;6.874;2022-11-20T18:48:05;56.13;;;32.87;;
14858;SDS011;7521;51.700;6.874;2022-11-20T18:51:10;60.17;;;32.37;;
14858;SDS011;7521;51.700;6.874;2022-11-20T18:54:18;59.33;;;33.53;;
14858;SDS011;7521;51.700;6.874;2022-11-20T18:57:24;58.77;;;32.40;;
14858;SDS011;7521;51.700;6.874;2022-11-20T19:00:30;55.30;;;31.80;;
14858;SDS011;7521;51.700;6.874;2022-11-20T19:03:35;55.80;;;30.77;;
14858;SDS011;7521;51.700;6.874;2022-11-20T19:06:41;57.03;;;32.23;;
14858;SDS011;7521;51.700;6.874;2022-11-20T19:09:47;62.33;;;32.67;;
14858;SDS011;7521;51.700;6.874;2022-11-20T19:12:53;56.53;;;30.67;;
14858;SDS011;7521;51.700;6.874;2022-11-20T19:16:05;58.30;;;32.47;;
14858;SDS011;7521;51.700;6.874;2022-11-20T19:19:10;59.17;;;33.40;;
14858;SDS011;7521;51.700;6.874;2022-11-20T19:22:16;62.00;;;33.53;;
14858;SDS011;7521;51.700;6.874;2022-11-20T19:25:21;57.20;;;31.83;;
14858;SDS011;7521;51.700;6.874;2022-11-20T19:28:29;55.27;;;30.83;;
14858;SDS011;7521;51.700;6.874;2022-11-20T19:31:34;52.30;;;29.83;;
14858;SDS011;7521;51.700;6.874;2022-11-20T19:34:39;54.35;;;31.23;;